Country
Station

 

Weather  for  Aeropuerto Jose Marti, Rancho-Boyeros, Habana  -  Cuba    Cuba

  
33 °C (91 °F)
    
 
 

Current METAR for Aeropuerto Jose Marti, Rancho-Boyeros, Habana is :

MUHA 201955Z 04010KT 9000 BKN040 33/26 Q1016

 

This is a report for Aeropuerto Jose Marti, Rancho-Boyeros, Habana - Cuba.
 
The report was made 31 minutes ago, at 19:55 UTC .
The wind was blowing at a speed of 5.1 meters per second (11.5 miles per hour) from northeast (040°).
 
The temperature was 33 °C (91 °F), with a dew-point at 26 °C (79 °F).
The temperature felt like 42 °C (107 °F).
 
The atmospheric pressure was 1016 hPa (30.00 inHg).
The relative humidity was 66.8%.
 
There were broken clouds at a height of 1219 meters (4000 feet).
 
The overall visibility was 9.0 kilometers (5.6 miles).
 

 
 
 
 

Country :   A   B   C   D   E   F   G   H   I   J   K   L   M   N   O   P   Q   R   S   T   U   V   W   Y   Z

 

Site Info  |  Disclaimer  |  Credits  |  Privacy
Contact us  |  Add to favorites
© 2013-2019 METARs - All rights reserved